Latest Weather Observations for Bougainville Reef

IDQ60801

Issued at 10:52 pm EST Monday 6 April 2020 (issued every 10 minutes, with the page automatically refreshed every 10 minutes)

About weather observations | Map of weather stations | Latest weather observations for QLD | Other Formats
Station Details ID: 200840 Name: BOUGAINVILLE REEF Lat: -15.49 Lon: 147.12 Height: 0.0 m
Data from the previous 72 hours. | See also: Recent months for locations in Queensland
Date/Time
EST
Temp
°C
App
Temp
°C
Dew
Point
°C
Rel
Hum
%
Delta-T
°C
Wind Press
QNH
hPa
Press
MSL
hPa
Rain since
9am
mm
Dir  Spd
km/h
Gust
km/h
Spd
kts
Gust
kts
06/10:30pm 27.6 - - - - ESE 33 37 18 20 1012.0 1011.9 -
06/10:00pm 27.7 - - - - ESE 37 41 20 22 1011.9 1011.8 -
06/09:30pm 27.6 - - - - ESE 37 43 20 23 1011.9 1011.8 -
06/09:00pm 27.6 - - - - ESE 35 41 19 22 1012.0 1011.9 -
06/08:30pm 27.6 - - - - ESE 37 43 20 23 1011.7 1011.6 -
06/08:00pm 27.5 - - - - SE 35 43 19 23 1011.6 1011.5 -
06/07:30pm 27.5 - - - - SE 35 41 19 22 1011.3 1011.2 -
06/07:00pm 27.5 - - - - SE 33 39 18 21 1011.1 1011.0 -
06/06:30pm 27.7 - - - - SE 35 41 19 22 1010.8 1010.7 -
06/06:00pm 27.6 - - - - SE 35 43 19 23 1010.4 1010.3 -
06/05:30pm 27.6 - - - - SSE 32 35 17 19 1010.4 1010.3 -
06/05:00pm 27.8 - - - - SE 32 39 17 21 1010.2 1010.1 -
06/04:30pm 27.6 - - - - SSE 32 35 17 19 1010.0 1009.9 -
06/04:00pm 27.6 - - - - SSE 32 39 17 21 1009.7 1009.6 -
06/03:30pm 27.6 - - - - SE 30 35 16 19 1009.8 1009.7 -
06/03:00pm 27.5 - - - - SE 28 33 15 18 1010.0 1009.9 -
06/02:30pm 27.5 - - - - SSE 28 33 15 18 1010.2 1010.1 -
06/02:00pm 27.5 - - - - SSE 28 32 15 17 1010.4 1010.3 -
06/01:30pm 27.4 - - - - SSE 26 32 14 17 1010.8 1010.7 -
06/01:00pm 27.4 - - - - SE 28 32 15 17 1011.0 1010.9 -
06/12:30pm 27.5 - - - - SE 30 33 16 18 1011.5 1011.4 -
06/12:00pm 27.5 - - - - SE 26 28 14 15 1012.0 1011.9 -
06/11:30am 27.4 - - - - SE 26 30 14 16 1012.5 1012.4 -
06/11:00am 27.2 - - - - SE 20 26 11 14 1012.8 1012.7 -
06/10:30am 27.3 - - - - SE 22 26 12 14 1013.1 1013.0 -
06/10:00am 27.5 - - - - SE 24 26 13 14 1013.2 1013.1 -
06/09:30am 27.5 - - - - SE 24 30 13 16 1013.1 1013.0 -
06/09:00am 27.3 - - - - SE 28 32 15 17 1012.8 1012.7 -
06/08:30am 27.3 - - - - SE 28 32 15 17 1012.4 1012.3 -
06/08:00am 27.2 - - - - SE 28 32 15 17 1012.0 1011.9 -
06/07:30am 27.5 - - - - SE 28 32 15 17 1011.8 1011.7 -
06/07:00am 27.3 - - - - SE 28 32 15 17 1011.4 1011.3 -
06/06:30am 27.1 - - - - SE 26 30 14 16 1011.3 1011.2 -
06/06:00am 27.2 - - - - SE 26 32 14 17 1011.3 1011.2 -
06/05:30am 27.1 - - - - SE 26 32 14 17 1011.0 1010.9 -
06/05:00am 27.2 - - - - SE 24 26 13 14 1011.1 1011.0 -
06/04:30am 27.3 - - - - SE 26 32 14 17 1010.9 1010.8 -
06/04:00am 27.4 - - - - ESE 26 30 14 16 1010.7 1010.6 -
06/03:30am 27.2 - - - - ESE 26 30 14 16 1010.6 1010.5 -
06/03:00am 27.1 - - - - ESE 24 30 13 16 1010.6 1010.5 -
06/02:30am 27.3 - - - - SE 24 26 13 14 1010.5 1010.4 -
06/02:00am 27.3 - - - - SE 24 26 13 14 1010.6 1010.5 -
06/01:30am 27.3 - - - - SE 24 30 13 16 1010.8 1010.7 -
06/01:00am 27.3 - - - - SE 24 30 13 16 1011.2 1011.1 -
06/12:30am 27.4 - - - - SE 24 30 13 16 1011.6 1011.5 -
06/12:00am 27.5 - - - - SE 26 30 14 16 1011.7 1011.6 -
 
Date/Time
EST
Temp
°C
App
Temp
°C
Dew
Point
°C
Rel
Hum
%
Delta-T
°C
Wind Press
QNH
hPa
Press
MSL
hPa
Rain since
9am
mm
Dir  Spd
km/h
Gust
km/h
Spd
kts
Gust
kts
05/11:30pm 27.4 - - - - SE 28 33 15 18 1012.0 1011.9 -
05/11:00pm 27.4 - - - - SE 32 35 17 19 1012.0 1011.9 -
05/10:30pm 27.4 - - - - SE 30 35 16 19 1012.2 1012.1 -
05/10:00pm 27.5 - - - - SSE 28 32 15 17 1012.4 1012.3 -
05/09:30pm 27.4 - - - - SE 28 33 15 18 1012.4 1012.3 -
05/09:00pm 27.4 - - - - SSE 30 35 16 19 1012.3 1012.2 -
05/08:30pm 27.4 - - - - SSE 28 32 15 17 1011.9 1011.8 -
05/08:00pm 27.3 - - - - SE 30 35 16 19 1011.7 1011.6 -
05/07:30pm 27.4 - - - - SE 30 33 16 18 1011.3 1011.2 -
05/07:00pm 27.3 - - - - SSE 32 37 17 20 1010.8 1010.7 -
05/06:30pm 27.3 - - - - SSE 32 35 17 19 1010.3 1010.2 -
05/06:00pm 27.3 - - - - SSE 32 35 17 19 1010.0 1009.9 -
05/05:30pm 27.3 - - - - SSE 30 33 16 18 1009.7 1009.6 -
05/05:00pm 27.4 - - - - SSE 26 30 14 16 1009.4 1009.3 -
05/04:30pm 27.3 - - - - SSE 26 30 14 16 1009.1 1009.0 -
05/04:00pm 27.1 - - - - SSE 24 28 13 15 1008.9 1008.8 -
05/03:30pm 27.4 - - - - SSE 22 26 12 14 1009.0 1008.9 -
05/03:00pm 27.3 - - - - S 20 26 11 14 1008.9 1008.8 -
05/02:30pm 27.2 - - - - S 7 22 4 12 1009.1 1009.0 -
05/02:00pm 27.3 - - - - S 2 6 1 3 1009.6 1009.5 -
05/01:30pm 27.2 - - - - S 2 6 1 3 1009.9 1009.8 -
05/01:00pm 27.1 - - - - CALM 0 4 0 2 1010.1 1010.0 -
05/12:30pm 27.0 - - - - CALM 0 6 0 3 1010.6 1010.5 -
05/12:00pm 27.0 - - - - CALM 0 4 0 2 1011.0 1010.9 -
05/11:30am 27.0 - - - - CALM 0 2 0 1 1011.6 1011.5 -
05/11:00am 26.9 - - - - CALM 0 4 0 2 1011.9 1011.8 -
05/10:30am 26.8 - - - - CALM 0 6 0 3 1012.1 1012.0 -
05/10:00am 26.9 - - - - CALM 0 4 0 2 1012.2 1012.1 -
05/09:30am 26.9 - - - - CALM 0 6 0 3 1012.2 1012.1 -
05/09:00am 26.8 - - - - CALM 0 4 0 2 1012.3 1012.2 -
05/08:30am 26.9 - - - - CALM 0 4 0 2 1012.2 1012.1 -
05/08:00am 27.2 - - - - CALM 0 4 0 2 1012.0 1011.9 -
05/07:30am 27.2 - - - - CALM 0 4 0 2 1011.7 1011.6 -
05/07:00am 27.0 - - - - CALM 0 2 0 1 1011.3 1011.2 -
05/06:30am 26.6 - - - - S 4 9 2 5 1011.0 1010.9 -
05/06:00am 26.5 - - - - S 7 11 4 6 1010.6 1010.5 -
05/05:30am 26.6 - - - - S 7 11 4 6 1010.3 1010.2 -
05/05:00am 26.7 - - - - S 9 11 5 6 1009.8 1009.7 -
05/04:30am 26.5 - - - - CALM 0 0 0 0 1009.6 1009.5 -
05/04:00am 26.6 - - - - CALM 0 4 0 2 1009.3 1009.2 -
05/03:30am 26.6 - - - - SSW 4 7 2 4 1009.7 1009.6 -
05/03:00am 26.6 - - - - CALM 0 0 0 0 1009.6 1009.5 -
05/02:30am 26.6 - - - - CALM 0 0 0 0 1009.8 1009.7 -
05/02:00am 26.8 - - - - CALM 0 0 0 0 1010.1 1010.0 -
05/01:30am 26.8 - - - - CALM 0 0 0 0 1010.2 1010.1 -
05/01:00am 26.8 - - - - SSW 2 7 1 4 1010.5 1010.4 -
05/12:30am 26.9 - - - - S 6 7 3 4 1010.7 1010.6 -
05/12:00am 27.0 - - - - S 7 9 4 5 1010.9 1010.8 -
 
Date/Time
EST
Temp
°C
App
Temp
°C
Dew
Point
°C
Rel
Hum
%
Delta-T
°C
Wind Press
QNH
hPa
Press
MSL
hPa
Rain since
9am
mm
Dir  Spd
km/h
Gust
km/h
Spd
kts
Gust
kts
04/11:30pm 27.1 - - - - S 6 7 3 4 1011.4 1011.3 -
04/11:00pm 27.1 - - - - SSE 9 11 5 6 1011.4 1011.3 -
04/10:30pm 27.3 - - - - E 13 13 7 7 1011.6 1011.5 -
04/10:00pm 27.3 - - - - SE 2 7 1 4 1011.6 1011.5 -
04/09:30pm 27.2 - - - - SSE 9 11 5 6 1011.5 1011.4 -
04/09:00pm 27.4 - - - - SSE 9 13 5 7 1011.3 1011.2 -
04/08:30pm 27.3 - - - - SSE 11 13 6 7 1011.1 1011.0 -
04/08:00pm 27.4 - - - - SE 13 15 7 8 1010.7 1010.6 -
04/07:30pm 27.3 - - - - SE 11 15 6 8 1010.4 1010.3 -
04/07:00pm 27.2 - - - - SSE 7 13 4 7 1009.9 1009.8 -
04/06:30pm 27.3 - - - - S 11 13 6 7 1009.7 1009.6 -
04/06:00pm 27.5 - - - - S 13 15 7 8 1009.3 1009.2 -
04/05:30pm 27.5 - - - - SSW 13 17 7 9 1008.9 1008.8 -
04/05:00pm 27.5 - - - - SW 13 17 7 9 1008.8 1008.7 -
04/04:30pm 27.5 - - - - SW 11 13 6 7 1008.6 1008.5 -
04/04:00pm 27.5 - - - - SSW 7 11 4 6 1008.3 1008.2 -
04/03:30pm 27.4 - - - - SW 9 13 5 7 1008.2 1008.1 -
04/03:00pm 27.2 - - - - SW 13 15 7 8 1008.3 1008.2 -
04/02:30pm 27.1 - - - - SW 11 15 6 8 1008.4 1008.3 -
04/02:00pm 26.9 - - - - SW 13 17 7 9 1008.7 1008.6 -
04/01:30pm 26.9 - - - - SW 13 17 7 9 1008.9 1008.8 -
04/01:00pm 26.9 - - - - SSW 13 15 7 8 1009.5 1009.4 -
04/12:30pm 26.9 - - - - SSW 11 15 6 8 1009.8 1009.7 -
04/12:00pm 26.8 - - - - SSW 11 15 6 8 1010.1 1010.0 -
04/11:30am 26.8 - - - - S 11 13 6 7 1010.5 1010.4 -
04/11:00am 26.8 - - - - S 9 13 5 7 1010.9 1010.8 -
04/10:30am 26.8 - - - - SSW 11 15 6 8 1011.3 1011.2 -
04/10:00am 26.8 - - - - S 11 15 6 8 1011.4 1011.3 -
04/09:30am 26.9 - - - - S 13 15 7 8 1011.4 1011.3 -
04/09:00am 26.8 - - - - SSE 9 13 5 7 1011.4 1011.3 -
04/08:30am 26.9 - - - - SSE 11 15 6 8 1011.3 1011.2 -
04/08:00am 27.0 - - - - SSE 11 15 6 8 1011.0 1010.9 -
04/07:30am 27.0 - - - - SSE 9 13 5 7 1010.8 1010.7 -
04/07:00am 27.0 - - - - SSE 11 15 6 8 1010.5 1010.4 -
04/06:30am 26.7 - - - - SSE 11 13 6 7 1010.2 1010.1 -
04/06:00am 26.7 - - - - SSE 11 15 6 8 1010.0 1009.9 -
04/05:30am 26.7 - - - - SSE 11 13 6 7 1009.7 1009.6 -
04/05:00am 26.8 - - - - SE 13 17 7 9 1009.4 1009.3 -
04/04:30am 26.8 - - - - SSE 15 17 8 9 1009.2 1009.1 -
04/04:00am 26.7 - - - - SSE 11 15 6 8 1009.0 1008.9 -
04/03:30am 26.7 - - - - SSE 9 11 5 6 1009.0 1008.9 -
04/03:00am 26.7 - - - - SE 11 15 6 8 1008.9 1008.8 -
04/02:30am 26.7 - - - - SE 13 17 7 9 1008.9 1008.8 -
04/02:00am 26.8 - - - - SSE 13 17 7 9 1009.1 1009.0 -
04/01:30am 26.8 - - - - SE 13 19 7 10 1009.2 1009.1 -
04/01:00am 26.9 - - - - SE 15 19 8 10 1009.4 1009.3 -
04/12:30am 26.8 - - - - E 17 19 9 10 1009.4 1009.3 -
04/12:00am 26.8 - - - - E 22 26 12 14 1009.7 1009.6 -
 
Date/Time
EST
Temp
°C
App
Temp
°C
Dew
Point
°C
Rel
Hum
%
Delta-T
°C
Wind Press
QNH
hPa
Press
MSL
hPa
Rain since
9am
mm
Dir  Spd
km/h
Gust
km/h
Spd
kts
Gust
kts
03/11:30pm 26.9 - - - - ESE 22 24 12 13 1010.2 1010.1 -
03/11:00pm 26.8 - - - - ESE 20 24 11 13 1010.2 1010.1 -

Other formats

Comma delimited format used in spreadsheet applications
http://www.bom.gov.au/fwo/IDQ60801/IDQ60801.95288.axf

JavaScript Object Notation format (JSON) in row-major order
http://www.bom.gov.au/fwo/IDQ60801/IDQ60801.95288.json

Data quality

Most of these data are generated automatically and are frequently updated. Quality checks on data are not normally performed. It is possible for incorrect values to appear. Refer to information at About Latest Weather Observations and please check the disclaimer before using these data.